sensor_id;sensor_type;location;lat;lon;timestamp;pressure;altitude;pressure_sealevel;temperature;humidity
71299;BME280;59083;47.974;21.722;2022-11-18T00:01:36;99226.03;;;3.83;92.69
71299;BME280;59083;47.974;21.722;2022-11-18T00:04:37;99225.53;;;3.87;92.65
71299;BME280;59083;47.974;21.722;2022-11-18T00:07:38;99209.25;;;3.84;92.66
71299;BME280;59083;47.974;21.722;2022-11-18T00:10:39;99212.53;;;3.86;92.73
71299;BME280;59083;47.974;21.722;2022-11-18T00:13:40;99208.66;;;3.73;92.38
71299;BME280;59083;47.974;21.722;2022-11-18T00:17:02;99215.94;;;3.63;93.12
71299;BME280;59083;47.974;21.722;2022-11-18T00:20:04;99208.66;;;3.65;93.53
71299;BME280;59083;47.974;21.722;2022-11-18T00:23:05;99216.19;;;3.46;94.29
71299;BME280;59083;47.974;21.722;2022-11-18T00:26:09;99221.81;;;3.35;95.76
71299;BME280;59083;47.974;21.722;2022-11-18T00:29:11;99219.94;;;3.51;95.36
71299;BME280;59083;47.974;21.722;2022-11-18T00:32:12;99218.59;;;3.55;95.02
71299;BME280;59083;47.974;21.722;2022-11-18T00:35:14;99219.59;;;3.54;96.68
71299;BME280;59083;47.974;21.722;2022-11-18T00:38:15;99211.69;;;3.54;97.19
71299;BME280;59083;47.974;21.722;2022-11-18T00:41:16;99213.19;;;3.49;98.45
71299;BME280;59083;47.974;21.722;2022-11-18T00:44:17;99200.84;;;3.49;98.15
71299;BME280;59083;47.974;21.722;2022-11-18T00:47:19;99194.00;;;3.32;99.29
71299;BME280;59083;47.974;21.722;2022-11-18T00:50:20;99200.09;;;3.32;100.00
71299;BME280;59083;47.974;21.722;2022-11-18T00:53:23;99195.03;;;3.23;100.00
71299;BME280;59083;47.974;21.722;2022-11-18T00:56:24;99180.22;;;3.22;100.00
71299;BME280;59083;47.974;21.722;2022-11-18T00:59:26;99180.38;;;3.28;100.00
71299;BME280;59083;47.974;21.722;2022-11-18T01:02:27;99185.13;;;3.25;100.00
71299;BME280;59083;47.974;21.722;2022-11-18T01:05:28;99175.63;;;3.24;100.00
71299;BME280;59083;47.974;21.722;2022-11-18T01:08:29;99175.28;;;3.27;100.00
71299;BME280;59083;47.974;21.722;2022-11-18T01:11:30;99174.94;;;3.30;100.00
71299;BME280;59083;47.974;21.722;2022-11-18T01:14:50;99176.09;;;3.27;100.00
71299;BME280;59083;47.974;21.722;2022-11-18T01:17:52;99169.31;;;3.33;100.00
71299;BME280;59083;47.974;21.722;2022-11-18T01:20:53;99168.66;;;3.31;100.00
71299;BME280;59083;47.974;21.722;2022-11-18T01:23:55;99169.03;;;3.28;100.00
71299;BME280;59083;47.974;21.722;2022-11-18T01:26:57;99164.09;;;3.25;100.00
71299;BME280;59083;47.974;21.722;2022-11-18T01:29:58;99166.03;;;3.31;100.00
71299;BME280;59083;47.974;21.722;2022-11-18T01:33:00;99163.09;;;3.26;100.00
71299;BME280;59083;47.974;21.722;2022-11-18T01:36:02;99158.19;;;3.23;100.00
71299;BME280;59083;47.974;21.722;2022-11-18T01:39:03;99147.50;;;3.24;100.00
71299;BME280;59083;47.974;21.722;2022-11-18T01:42:12;99152.09;;;3.22;100.00
71299;BME280;59083;47.974;21.722;2022-11-18T01:45:34;99156.91;;;3.19;100.00
71299;BME280;59083;47.974;21.722;2022-11-18T01:48:37;99145.88;;;3.15;100.00
71299;BME280;59083;47.974;21.722;2022-11-18T01:51:54;99153.25;;;3.20;100.00
71299;BME280;59083;47.974;21.722;2022-11-18T01:55:03;99146.38;;;3.19;100.00
71299;BME280;59083;47.974;21.722;2022-11-18T01:58:13;99145.56;;;3.10;100.00
71299;BME280;59083;47.974;21.722;2022-11-18T02:01:16;99141.78;;;3.13;100.00
71299;BME280;59083;47.974;21.722;2022-11-18T02:04:17;99146.59;;;3.01;100.00
71299;BME280;59083;47.974;21.722;2022-11-18T02:07:19;99142.09;;;3.10;100.00
71299;BME280;59083;47.974;21.722;2022-11-18T02:10:22;99127.53;;;2.91;100.00
71299;BME280;59083;47.974;21.722;2022-11-18T02:13:25;99137.53;;;3.04;100.00
71299;BME280;59083;47.974;21.722;2022-11-18T02:20:18;99124.06;;;2.99;100.00
71299;BME280;59083;47.974;21.722;2022-11-18T02:24:12;99115.31;;;3.06;100.00
71299;BME280;59083;47.974;21.722;2022-11-18T02:30:44;99108.19;;;3.15;100.00
71299;BME280;59083;47.974;21.722;2022-11-18T02:33:53;99086.81;;;3.18;100.00
71299;BME280;59083;47.974;21.722;2022-11-18T02:37:14;99092.78;;;3.12;100.00
71299;BME280;59083;47.974;21.722;2022-11-18T02:40:30;99086.47;;;3.21;100.00
71299;BME280;59083;47.974;21.722;2022-11-18T02:43:38;99095.03;;;3.15;100.00
71299;BME280;59083;47.974;21.722;2022-11-18T02:46:46;99096.66;;;3.24;100.00
71299;BME280;59083;47.974;21.722;2022-11-18T02:49:53;99106.56;;;3.14;100.00
71299;BME280;59083;47.974;21.722;2022-11-18T02:52:58;99111.81;;;3.14;100.00
71299;BME280;59083;47.974;21.722;2022-11-18T02:56:01;99103.44;;;3.18;100.00
71299;BME280;59083;47.974;21.722;2022-11-18T02:59:03;99115.09;;;3.24;100.00
71299;BME280;59083;47.974;21.722;2022-11-18T03:02:05;99113.75;;;3.28;100.00
71299;BME280;59083;47.974;21.722;2022-11-18T03:05:10;99105.72;;;3.13;100.00
71299;BME280;59083;47.974;21.722;2022-11-18T03:08:17;99111.97;;;3.20;100.00
71299;BME280;59083;47.974;21.722;2022-11-18T03:11:22;99109.53;;;3.19;100.00
71299;BME280;59083;47.974;21.722;2022-11-18T03:14:34;99108.00;;;3.24;100.00
71299;BME280;59083;47.974;21.722;2022-11-18T03:24:08;99108.19;;;3.23;100.00
71299;BME280;59083;47.974;21.722;2022-11-18T03:27:23;99104.94;;;3.13;100.00
71299;BME280;59083;47.974;21.722;2022-11-18T03:30:29;99106.91;;;3.11;100.00
71299;BME280;59083;47.974;21.722;2022-11-18T03:33:36;99108.19;;;3.15;100.00
71299;BME280;59083;47.974;21.722;2022-11-18T03:36:50;99101.94;;;3.16;100.00
71299;BME280;59083;47.974;21.722;2022-11-18T03:39:58;99100.47;;;3.13;100.00
71299;BME280;59083;47.974;21.722;2022-11-18T03:43:05;99085.16;;;3.17;100.00
71299;BME280;59083;47.974;21.722;2022-11-18T03:46:27;99093.06;;;3.17;100.00
71299;BME280;59083;47.974;21.722;2022-11-18T03:49:39;99085.16;;;3.17;100.00
71299;BME280;59083;47.974;21.722;2022-11-18T03:52:42;99068.78;;;3.07;100.00
71299;BME280;59083;47.974;21.722;2022-11-18T03:55:49;99068.66;;;3.00;100.00
71299;BME280;59083;47.974;21.722;2022-11-18T04:02:04;99047.03;;;3.13;100.00
71299;BME280;59083;47.974;21.722;2022-11-18T04:05:10;99033.44;;;3.01;100.00
71299;BME280;59083;47.974;21.722;2022-11-18T04:08:20;99021.06;;;3.10;100.00
71299;BME280;59083;47.974;21.722;2022-11-18T04:11:29;99019.41;;;3.09;100.00
71299;BME280;59083;47.974;21.722;2022-11-18T04:14:50;99017.44;;;3.11;100.00
71299;BME280;59083;47.974;21.722;2022-11-18T04:17:55;99036.62;;;3.19;100.00
71299;BME280;59083;47.974;21.722;2022-11-18T04:20:56;99039.22;;;3.27;100.00
71299;BME280;59083;47.974;21.722;2022-11-18T04:23:57;99037.44;;;3.20;100.00
71299;BME280;59083;47.974;21.722;2022-11-18T04:26:59;99032.53;;;3.17;100.00
71299;BME280;59083;47.974;21.722;2022-11-18T04:30:00;99038.50;;;3.11;100.00
71299;BME280;59083;47.974;21.722;2022-11-18T04:33:02;99040.13;;;3.12;100.00
71299;BME280;59083;47.974;21.722;2022-11-18T04:36:03;99033.34;;;3.17;100.00
71299;BME280;59083;47.974;21.722;2022-11-18T04:39:05;99039.53;;;3.02;100.00
71299;BME280;59083;47.974;21.722;2022-11-18T04:42:06;99036.53;;;3.05;100.00
71299;BME280;59083;47.974;21.722;2022-11-18T04:45:08;99036.84;;;3.10;100.00
71299;BME280;59083;47.974;21.722;2022-11-18T04:48:10;99040.25;;;3.18;100.00
71299;BME280;59083;47.974;21.722;2022-11-18T04:51:11;99045.12;;;2.99;100.00
71299;BME280;59083;47.974;21.722;2022-11-18T04:54:13;99037.53;;;3.04;100.00
71299;BME280;59083;47.974;21.722;2022-11-18T04:57:14;99036.72;;;3.03;100.00
71299;BME280;59083;47.974;21.722;2022-11-18T05:00:16;99054.31;;;3.03;100.00
71299;BME280;59083;47.974;21.722;2022-11-18T05:03:17;99072.72;;;3.03;100.00
71299;BME280;59083;47.974;21.722;2022-11-18T05:06:19;99076.69;;;3.07;100.00
71299;BME280;59083;47.974;21.722;2022-11-18T05:09:20;99088.88;;;3.00;100.00
71299;BME280;59083;47.974;21.722;2022-11-18T05:12:22;99094.13;;;3.00;100.00
71299;BME280;59083;47.974;21.722;2022-11-18T05:15:41;99097.72;;;3.07;100.00
71299;BME280;59083;47.974;21.722;2022-11-18T05:18:43;99098.72;;;3.06;100.00
71299;BME280;59083;47.974;21.722;2022-11-18T05:21:44;99099.53;;;3.06;100.00
71299;BME280;59083;47.974;21.722;2022-11-18T05:24:46;99086.03;;;3.09;100.00
71299;BME280;59083;47.974;21.722;2022-11-18T05:27:47;99068.47;;;3.02;100.00
71299;BME280;59083;47.974;21.722;2022-11-18T05:30:48;99063.37;;;3.00;100.00
71299;BME280;59083;47.974;21.722;2022-11-18T05:33:49;99051.44;;;2.89;100.00
71299;BME280;59083;47.974;21.722;2022-11-18T05:36:51;99052.94;;;2.84;100.00
71299;BME280;59083;47.974;21.722;2022-11-18T05:39:52;99033.63;;;2.91;100.00
71299;BME280;59083;47.974;21.722;2022-11-18T05:42:53;99040.41;;;2.86;100.00
71299;BME280;59083;47.974;21.722;2022-11-18T05:46:12;99039.94;;;2.82;100.00
71299;BME280;59083;47.974;21.722;2022-11-18T05:49:14;99043.56;;;2.81;100.00
71299;BME280;59083;47.974;21.722;2022-11-18T05:52:15;99038.22;;;2.98;100.00
71299;BME280;59083;47.974;21.722;2022-11-18T05:55:18;99043.97;;;3.01;100.00
71299;BME280;59083;47.974;21.722;2022-11-18T05:58:22;99047.78;;;2.90;100.00
71299;BME280;59083;47.974;21.722;2022-11-18T06:01:37;99047.09;;;2.97;100.00
71299;BME280;59083;47.974;21.722;2022-11-18T06:07:44;99061.56;;;3.01;100.00
71299;BME280;59083;47.974;21.722;2022-11-18T06:10:47;99060.91;;;2.99;100.00
71299;BME280;59083;47.974;21.722;2022-11-18T06:13:54;99057.44;;;3.06;100.00
71299;BME280;59083;47.974;21.722;2022-11-18T06:16:59;99054.97;;;3.05;100.00
71299;BME280;59083;47.974;21.722;2022-11-18T06:20:03;99057.91;;;3.10;100.00
71299;BME280;59083;47.974;21.722;2022-11-18T06:23:04;99064.81;;;3.11;100.00
71299;BME280;59083;47.974;21.722;2022-11-18T06:26:06;99079.31;;;3.07;100.00
71299;BME280;59083;47.974;21.722;2022-11-18T06:29:10;99072.41;;;3.06;100.00
71299;BME280;59083;47.974;21.722;2022-11-18T06:32:12;99049.69;;;3.13;100.00
71299;BME280;59083;47.974;21.722;2022-11-18T06:35:14;99048.97;;;3.19;100.00
71299;BME280;59083;47.974;21.722;2022-11-18T06:38:15;99054.28;;;3.11;100.00
71299;BME280;59083;47.974;21.722;2022-11-18T06:41:16;99067.41;;;3.19;100.00
71299;BME280;59083;47.974;21.722;2022-11-18T06:44:17;99058.88;;;3.09;100.00
71299;BME280;59083;47.974;21.722;2022-11-18T06:47:19;99035.81;;;3.19;100.00
71299;BME280;59083;47.974;21.722;2022-11-18T06:50:20;99040.72;;;3.22;100.00
71299;BME280;59083;47.974;21.722;2022-11-18T06:53:21;99052.62;;;3.10;100.00
71299;BME280;59083;47.974;21.722;2022-11-18T06:56:22;99056.87;;;3.19;100.00
71299;BME280;59083;47.974;21.722;2022-11-18T06:59:24;99061.78;;;3.22;100.00
71299;BME280;59083;47.974;21.722;2022-11-18T07:02:25;99058.47;;;3.28;100.00
71299;BME280;59083;47.974;21.722;2022-11-18T07:05:26;99058.16;;;3.23;100.00
71299;BME280;59083;47.974;21.722;2022-11-18T07:08:27;99057.34;;;3.22;100.00
71299;BME280;59083;47.974;21.722;2022-11-18T07:11:29;99048.25;;;3.25;100.00
71299;BME280;59083;47.974;21.722;2022-11-18T07:14:30;99047.13;;;3.19;100.00
71299;BME280;59083;47.974;21.722;2022-11-18T07:17:32;99048.25;;;3.25;100.00
71299;BME280;59083;47.974;21.722;2022-11-18T07:20:33;99067.62;;;3.32;100.00
71299;BME280;59083;47.974;21.722;2022-11-18T07:23:35;99057.66;;;3.19;100.00
71299;BME280;59083;47.974;21.722;2022-11-18T07:26:36;99065.41;;;3.21;100.00
71299;BME280;59083;47.974;21.722;2022-11-18T07:29:37;99056.53;;;3.22;100.00
71299;BME280;59083;47.974;21.722;2022-11-18T07:32:38;99053.84;;;3.30;100.00
71299;BME280;59083;47.974;21.722;2022-11-18T07:35:40;99052.22;;;3.29;100.00
71299;BME280;59083;47.974;21.722;2022-11-18T07:38:41;99060.09;;;3.29;100.00
71299;BME280;59083;47.974;21.722;2022-11-18T07:41:43;99054.19;;;3.50;100.00
71299;BME280;59083;47.974;21.722;2022-11-18T07:44:44;99066.62;;;3.41;100.00
71299;BME280;59083;47.974;21.722;2022-11-18T07:47:45;99067.31;;;3.35;100.00
71299;BME280;59083;47.974;21.722;2022-11-18T07:50:46;99056.16;;;3.25;100.00
71299;BME280;59083;47.974;21.722;2022-11-18T07:53:48;99059.41;;;3.35;100.00
71299;BME280;59083;47.974;21.722;2022-11-18T07:56:49;99061.56;;;3.31;100.00
71299;BME280;59083;47.974;21.722;2022-11-18T07:59:50;99058.75;;;3.33;100.00
71299;BME280;59083;47.974;21.722;2022-11-18T08:02:51;99045.84;;;3.46;100.00
71299;BME280;59083;47.974;21.722;2022-11-18T08:05:58;99046.44;;;3.56;100.00
71299;BME280;59083;47.974;21.722;2022-11-18T08:08:59;99046.25;;;3.58;100.00
71299;BME280;59083;47.974;21.722;2022-11-18T08:12:01;99018.81;;;3.52;100.00
71299;BME280;59083;47.974;21.722;2022-11-18T08:15:02;99032.13;;;3.73;100.00
71299;BME280;59083;47.974;21.722;2022-11-18T08:18:04;99033.28;;;3.71;100.00
71299;BME280;59083;47.974;21.722;2022-11-18T08:21:05;99034.41;;;3.77;100.00
71299;BME280;59083;47.974;21.722;2022-11-18T08:24:08;99028.72;;;3.65;100.00
71299;BME280;59083;47.974;21.722;2022-11-18T08:27:09;99033.13;;;3.72;100.00
71299;BME280;59083;47.974;21.722;2022-11-18T08:30:11;99027.81;;;3.81;100.00
71299;BME280;59083;47.974;21.722;2022-11-18T08:33:12;99030.88;;;3.84;100.00
71299;BME280;59083;47.974;21.722;2022-11-18T08:36:16;99025.63;;;3.84;100.00
71299;BME280;59083;47.974;21.722;2022-11-18T08:39:18;99025.03;;;3.97;100.00
71299;BME280;59083;47.974;21.722;2022-11-18T08:42:19;99031.22;;;4.04;100.00
71299;BME280;59083;47.974;21.722;2022-11-18T08:45:22;99034.91;;;3.95;100.00
71299;BME280;59083;47.974;21.722;2022-11-18T08:48:23;99024.47;;;3.87;100.00
71299;BME280;59083;47.974;21.722;2022-11-18T08:51:25;99035.47;;;4.05;100.00
71299;BME280;59083;47.974;21.722;2022-11-18T08:54:27;99046.38;;;4.02;100.00
71299;BME280;59083;47.974;21.722;2022-11-18T08:57:28;99053.59;;;4.08;100.00
71299;BME280;59083;47.974;21.722;2022-11-18T09:00:29;99062.84;;;4.04;100.00
71299;BME280;59083;47.974;21.722;2022-11-18T09:03:30;99054.28;;;4.02;100.00
71299;BME280;59083;47.974;21.722;2022-11-18T09:06:32;99053.22;;;4.11;100.00
71299;BME280;59083;47.974;21.722;2022-11-18T09:09:34;99047.22;;;4.17;100.00
71299;BME280;59083;47.974;21.722;2022-11-18T09:12:36;99032.72;;;4.21;100.00
71299;BME280;59083;47.974;21.722;2022-11-18T09:15:38;99048.53;;;4.21;100.00
71299;BME280;59083;47.974;21.722;2022-11-18T09:18:39;99039.59;;;4.22;100.00
71299;BME280;59083;47.974;21.722;2022-11-18T09:21:40;99036.88;;;4.30;100.00
71299;BME280;59083;47.974;21.722;2022-11-18T09:24:42;99037.59;;;4.24;100.00
71299;BME280;59083;47.974;21.722;2022-11-18T09:27:43;99030.25;;;4.34;100.00
71299;BME280;59083;47.974;21.722;2022-11-18T09:30:44;99031.63;;;4.30;100.00
71299;BME280;59083;47.974;21.722;2022-11-18T09:33:45;99031.44;;;4.32;100.00
71299;BME280;59083;47.974;21.722;2022-11-18T09:36:47;99012.16;;;4.31;100.00
71299;BME280;59083;47.974;21.722;2022-11-18T09:39:48;99014.69;;;4.39;100.00
71299;BME280;59083;47.974;21.722;2022-11-18T09:42:56;99012.31;;;4.44;100.00
71299;BME280;59083;47.974;21.722;2022-11-18T09:46:13;99017.97;;;4.41;100.00
71299;BME280;59083;47.974;21.722;2022-11-18T09:52:45;99014.78;;;4.46;100.00
71299;BME280;59083;47.974;21.722;2022-11-18T09:55:51;98995.44;;;4.53;100.00
71299;BME280;59083;47.974;21.722;2022-11-18T09:58:53;98999.06;;;4.52;100.00
71299;BME280;59083;47.974;21.722;2022-11-18T10:02:21;98992.97;;;4.52;100.00
71299;BME280;59083;47.974;21.722;2022-11-18T10:05:29;98982.13;;;4.62;100.00
71299;BME280;59083;47.974;21.722;2022-11-18T10:15:18;98967.28;;;4.75;100.00
71299;BME280;59083;47.974;21.722;2022-11-18T10:18:36;98959.94;;;4.71;100.00
71299;BME280;59083;47.974;21.722;2022-11-18T10:24:57;98950.75;;;4.67;100.00
71299;BME280;59083;47.974;21.722;2022-11-18T10:31:18;98940.06;;;4.75;100.00
71299;BME280;59083;47.974;21.722;2022-11-18T10:34:19;98949.53;;;4.84;100.00
71299;BME280;59083;47.974;21.722;2022-11-18T10:40:26;98962.72;;;4.84;100.00
71299;BME280;59083;47.974;21.722;2022-11-18T10:46:46;98943.03;;;4.86;100.00
71299;BME280;59083;47.974;21.722;2022-11-18T10:49:47;98942.47;;;4.91;100.00
71299;BME280;59083;47.974;21.722;2022-11-18T10:52:52;98933.87;;;4.82;100.00
71299;BME280;59083;47.974;21.722;2022-11-18T10:56:01;98933.81;;;4.97;100.00
71299;BME280;59083;47.974;21.722;2022-11-18T10:59:03;98925.66;;;4.92;100.00
71299;BME280;59083;47.974;21.722;2022-11-18T11:02:15;98929.69;;;4.88;100.00
71299;BME280;59083;47.974;21.722;2022-11-18T11:05:21;98907.91;;;5.07;100.00
71299;BME280;59083;47.974;21.722;2022-11-18T11:08:23;98910.56;;;5.07;100.00
71299;BME280;59083;47.974;21.722;2022-11-18T11:11:36;98904.22;;;5.02;100.00
71299;BME280;59083;47.974;21.722;2022-11-18T11:14:48;98891.72;;;5.10;100.00
71299;BME280;59083;47.974;21.722;2022-11-18T11:17:55;98902.28;;;5.10;100.00
71299;BME280;59083;47.974;21.722;2022-11-18T11:21:19;98910.69;;;4.99;100.00
71299;BME280;59083;47.974;21.722;2022-11-18T11:24:25;98897.81;;;5.11;100.00
71299;BME280;59083;47.974;21.722;2022-11-18T11:27:42;98905.09;;;5.09;100.00
71299;BME280;59083;47.974;21.722;2022-11-18T11:44:11;98910.09;;;5.18;100.00
71299;BME280;59083;47.974;21.722;2022-11-18T11:47:33;98915.62;;;5.23;100.00
71299;BME280;59083;47.974;21.722;2022-11-18T11:50:52;98898.44;;;5.34;100.00
71299;BME280;59083;47.974;21.722;2022-11-18T11:57:44;98867.31;;;5.08;100.00
71299;BME280;59083;47.974;21.722;2022-11-18T12:01:07;98857.13;;;5.26;100.00
71299;BME280;59083;47.974;21.722;2022-11-18T12:04:49;98845.91;;;5.24;100.00
71299;BME280;59083;47.974;21.722;2022-11-18T12:07:58;98846.97;;;5.30;100.00
71299;BME280;59083;47.974;21.722;2022-11-18T12:14:34;98841.91;;;5.28;100.00
71299;BME280;59083;47.974;21.722;2022-11-18T12:17:49;98828.34;;;5.10;100.00
71299;BME280;59083;47.974;21.722;2022-11-18T12:20:53;98824.91;;;5.10;100.00
71299;BME280;59083;47.974;21.722;2022-11-18T12:24:32;98829.13;;;5.04;100.00
71299;BME280;59083;47.974;21.722;2022-11-18T12:30:39;98852.78;;;5.19;100.00
71299;BME280;59083;47.974;21.722;2022-11-18T12:33:43;98865.37;;;5.17;100.00
71299;BME280;59083;47.974;21.722;2022-11-18T12:36:45;98862.34;;;5.20;100.00
71299;BME280;59083;47.974;21.722;2022-11-18T12:39:47;98852.75;;;5.12;100.00
71299;BME280;59083;47.974;21.722;2022-11-18T12:42:49;98843.03;;;5.19;100.00
71299;BME280;59083;47.974;21.722;2022-11-18T12:52:48;98832.69;;;5.18;100.00
71299;BME280;59083;47.974;21.722;2022-11-18T12:55:49;98836.41;;;5.23;100.00
71299;BME280;59083;47.974;21.722;2022-11-18T12:58:55;98843.75;;;5.28;100.00
71299;BME280;59083;47.974;21.722;2022-11-18T13:05:18;98851.25;;;5.31;100.00
71299;BME280;59083;47.974;21.722;2022-11-18T13:08:20;98850.84;;;5.27;100.00
71299;BME280;59083;47.974;21.722;2022-11-18T13:11:21;98842.72;;;5.29;100.00
71299;BME280;59083;47.974;21.722;2022-11-18T13:14:44;98841.91;;;5.28;100.00
71299;BME280;59083;47.974;21.722;2022-11-18T13:18:30;98838.28;;;5.29;100.00
71299;BME280;59083;47.974;21.722;2022-11-18T13:21:31;98844.06;;;5.18;100.00
71299;BME280;59083;47.974;21.722;2022-11-18T13:24:51;98829.13;;;5.04;100.00
71299;BME280;59083;47.974;21.722;2022-11-18T13:28:21;98857.59;;;5.09;100.00
71299;BME280;59083;47.974;21.722;2022-11-18T13:34:43;98877.78;;;4.95;100.00
71299;BME280;59083;47.974;21.722;2022-11-18T13:37:58;98862.31;;;4.92;100.00
71299;BME280;59083;47.974;21.722;2022-11-18T13:41:00;98860.22;;;4.87;100.00
71299;BME280;59083;47.974;21.722;2022-11-18T13:44:11;98845.25;;;4.73;100.00
71299;BME280;59083;47.974;21.722;2022-11-18T13:50:36;98860.41;;;4.86;100.00
71299;BME280;59083;47.974;21.722;2022-11-18T13:53:39;98859.41;;;4.87;100.00
71299;BME280;59083;47.974;21.722;2022-11-18T13:56:40;98857.09;;;4.77;100.00
71299;BME280;59083;47.974;21.722;2022-11-18T13:59:42;98862.62;;;4.82;100.00
71299;BME280;59083;47.974;21.722;2022-11-18T14:02:44;98858.78;;;4.64;100.00
71299;BME280;59083;47.974;21.722;2022-11-18T14:05:55;98849.84;;;4.65;100.00
71299;BME280;59083;47.974;21.722;2022-11-18T14:09:17;98832.38;;;4.64;100.00
71299;BME280;59083;47.974;21.722;2022-11-18T14:12:30;98825.91;;;4.45;100.00
71299;BME280;59083;47.974;21.722;2022-11-18T14:15:34;98822.56;;;4.36;100.00
71299;BME280;59083;47.974;21.722;2022-11-18T14:18:37;98831.22;;;4.30;100.00
71299;BME280;59083;47.974;21.722;2022-11-18T14:21:45;98824.94;;;4.31;100.00
71299;BME280;59083;47.974;21.722;2022-11-18T14:28:53;98814.38;;;4.10;100.00
71299;BME280;59083;47.974;21.722;2022-11-18T14:35:11;98840.38;;;3.84;100.00
71299;BME280;59083;47.974;21.722;2022-11-18T14:38:21;98832.72;;;3.89;100.00
71299;BME280;59083;47.974;21.722;2022-11-18T14:41:23;98836.22;;;3.74;100.00
71299;BME280;59083;47.974;21.722;2022-11-18T14:44:44;98840.94;;;3.64;100.00
71299;BME280;59083;47.974;21.722;2022-11-18T14:47:45;98838.31;;;3.64;100.00
71299;BME280;59083;47.974;21.722;2022-11-18T14:50:46;98833.66;;;3.66;100.00
71299;BME280;59083;47.974;21.722;2022-11-18T14:53:47;98834.03;;;3.63;100.00
71299;BME280;59083;47.974;21.722;2022-11-18T14:56:50;98832.38;;;3.62;100.00
71299;BME280;59083;47.974;21.722;2022-11-18T14:59:52;98846.19;;;3.64;100.00
71299;BME280;59083;47.974;21.722;2022-11-18T15:02:53;98840.00;;;3.57;100.00
71299;BME280;59083;47.974;21.722;2022-11-18T15:05:54;98837.38;;;3.57;100.00
71299;BME280;59083;47.974;21.722;2022-11-18T15:08:55;98831.12;;;3.58;100.00
71299;BME280;59083;47.974;21.722;2022-11-18T15:11:56;98840.75;;;3.51;100.00
71299;BME280;59083;47.974;21.722;2022-11-18T15:14:58;98829.66;;;3.56;100.00
71299;BME280;59083;47.974;21.722;2022-11-18T15:17:59;98831.25;;;3.42;100.00
71299;BME280;59083;47.974;21.722;2022-11-18T15:21:00;98824.72;;;3.38;100.00
71299;BME280;59083;47.974;21.722;2022-11-18T15:24:01;98829.44;;;3.28;100.00
71299;BME280;59083;47.974;21.722;2022-11-18T15:27:03;98828.19;;;3.24;100.00
71299;BME280;59083;47.974;21.722;2022-11-18T15:30:06;98842.44;;;3.29;100.00
71299;BME280;59083;47.974;21.722;2022-11-18T15:33:07;98846.41;;;3.25;100.00
71299;BME280;59083;47.974;21.722;2022-11-18T15:36:13;98846.31;;;3.19;100.00
71299;BME280;59083;47.974;21.722;2022-11-18T15:39:15;98850.06;;;3.24;100.00
71299;BME280;59083;47.974;21.722;2022-11-18T15:42:17;98845.31;;;3.20;100.00
71299;BME280;59083;47.974;21.722;2022-11-18T15:45:18;98846.78;;;3.22;100.00
71299;BME280;59083;47.974;21.722;2022-11-18T15:48:19;98857.34;;;3.14;100.00
71299;BME280;59083;47.974;21.722;2022-11-18T15:51:21;98859.09;;;3.07;100.00
71299;BME280;59083;47.974;21.722;2022-11-18T15:54:23;98857.56;;;3.13;100.00
71299;BME280;59083;47.974;21.722;2022-11-18T15:57:24;98862.81;;;3.13;100.00
71299;BME280;59083;47.974;21.722;2022-11-18T16:00:25;98858.88;;;3.09;100.00
71299;BME280;59083;47.974;21.722;2022-11-18T16:03:26;98859.31;;;2.98;100.00
71299;BME280;59083;47.974;21.722;2022-11-18T16:06:28;98865.63;;;2.88;100.00
71299;BME280;59083;47.974;21.722;2022-11-18T16:09:29;98869.62;;;2.84;100.00
71299;BME280;59083;47.974;21.722;2022-11-18T16:12:50;98871.59;;;2.82;100.00
71299;BME280;59083;47.974;21.722;2022-11-18T16:15:52;98858.72;;;2.87;100.00
71299;BME280;59083;47.974;21.722;2022-11-18T16:18:53;98865.41;;;2.75;100.00
71299;BME280;59083;47.974;21.722;2022-11-18T16:21:55;98859.84;;;2.70;100.00
71299;BME280;59083;47.974;21.722;2022-11-18T16:24:56;98862.84;;;2.67;100.00
71299;BME280;59083;47.974;21.722;2022-11-18T16:27:58;98867.28;;;2.67;100.00
71299;BME280;59083;47.974;21.722;2022-11-18T16:30:59;98864.22;;;2.55;100.00
71299;BME280;59083;47.974;21.722;2022-11-18T16:34:26;98871.06;;;2.64;100.00
71299;BME280;59083;47.974;21.722;2022-11-18T16:37:28;98866.44;;;2.66;100.00
71299;BME280;59083;47.974;21.722;2022-11-18T16:40:29;98870.66;;;2.75;100.00
71299;BME280;59083;47.974;21.722;2022-11-18T16:43:31;98863.53;;;2.61;100.00
71299;BME280;59083;47.974;21.722;2022-11-18T16:46:34;98868.72;;;2.69;100.00
71299;BME280;59083;47.974;21.722;2022-11-18T16:49:35;98869.00;;;2.74;100.00
71299;BME280;59083;47.974;21.722;2022-11-18T16:52:37;98863.28;;;2.71;100.00
71299;BME280;59083;47.974;21.722;2022-11-18T16:55:38;98867.03;;;2.76;100.00
71299;BME280;59083;47.974;21.722;2022-11-18T16:58:39;98855.69;;;2.76;100.00
71299;BME280;59083;47.974;21.722;2022-11-18T17:01:41;98866.78;;;2.63;100.00
71299;BME280;59083;47.974;21.722;2022-11-18T17:04:42;98866.50;;;2.58;100.00
71299;BME280;59083;47.974;21.722;2022-11-18T17:07:43;98852.41;;;2.51;100.00
71299;BME280;59083;47.974;21.722;2022-11-18T17:10:45;98870.50;;;2.46;100.00
71299;BME280;59083;47.974;21.722;2022-11-18T17:13:46;98851.72;;;2.57;100.00
71299;BME280;59083;47.974;21.722;2022-11-18T17:16:48;98847.97;;;2.52;100.00
71299;BME280;59083;47.974;21.722;2022-11-18T17:19:49;98856.44;;;2.39;100.00
71299;BME280;59083;47.974;21.722;2022-11-18T17:22:51;98861.34;;;2.42;100.00
71299;BME280;59083;47.974;21.722;2022-11-18T17:25:53;98849.16;;;2.49;100.00
71299;BME280;59083;47.974;21.722;2022-11-18T17:28:54;98861.16;;;2.43;100.00
71299;BME280;59083;47.974;21.722;2022-11-18T17:31:56;98850.78;;;2.50;100.00
71299;BME280;59083;47.974;21.722;2022-11-18T17:34:57;98860.34;;;2.43;100.00
71299;BME280;59083;47.974;21.722;2022-11-18T17:37:58;98869.41;;;2.63;100.00